Time;durP1;ratioP1;P1;durP2;ratioP2;P2;SDS_P1;SDS_P2;PMS_P1;PMS_P2;Temp;Humidity;BMP_temperature;BMP_pressure;BME280_temperature;BME280_humidity;BME280_pressure;Samples;Min_cycle;Max_cycle;Signal;HPM_P1;HPM_P2
2023/05/18 00:01:00;;;;;;;5.90;2.93;;;;;;;17.44;75.37;98388.13;5054313;28;20201;-90
2023/05/18 00:03:28;;;;;;;3.73;1.97;;;;;;;17.45;75.30;98388.97;5055401;28;20614;-91
2023/05/18 00:06:07;;;;;;;8.37;2.50;;;;;;;17.44;75.53;98388.13;5054647;28;20280;-91
2023/05/18 00:08:44;;;;;;;6.40;2.80;;;;;;;17.35;75.46;98398.75;5055179;28;20192;-91
2023/05/18 00:11:32;;;;;;;9.70;4.03;;;;;;;17.34;75.91;98395.25;5054324;28;20186;-91
2023/05/18 00:14:14;;;;;;;22.33;5.07;;;;;;;17.36;75.81;98395.94;5071261;28;20192;-91
2023/05/18 00:16:43;;;;;;;6.47;3.33;;;;;;;17.36;75.54;98405.69;5054042;28;20605;-92
2023/05/18 00:19:31;;;;;;;6.70;3.17;;;;;;;17.31;75.32;98392.88;5054009;28;20737;-91
2023/05/18 00:22:19;;;;;;;;;;;;;;;;;;;;;
2023/05/18 00:25:06;;;;;;;6.97;2.53;;;;;;;17.34;75.21;98402.34;5055494;28;20166;-91
2023/05/18 00:27:34;;;;;;;4.80;2.60;;;;;;;17.32;75.04;98410.41;5054082;28;20196;-91
2023/05/18 00:30:09;;;;;;;8.93;3.03;;;;;;;17.30;75.26;98415.03;5053196;28;20193;-91
2023/05/18 00:32:36;;;;;;;5.53;2.50;;;;;;;17.27;74.92;98406.53;5053805;28;20267;-91
2023/05/18 00:35:06;;;;;;;18.83;4.80;;;;;;;17.31;74.99;98402.63;5054831;28;20232;-90
2023/05/18 00:37:43;;;;;;;5.13;2.50;;;;;;;17.33;74.55;98404.16;5053699;28;20182;-91
2023/05/18 00:40:14;;;;;;;4.43;2.13;;;;;;;17.26;74.55;98403.06;5043436;28;20260;-91
2023/05/18 00:43:02;;;;;;;3.70;2.43;;;;;;;17.26;74.46;98404.84;5034116;28;20178;-91
2023/05/18 00:45:54;;;;;;;7.03;3.10;;;;;;;17.18;74.27;98397.63;5034368;28;20178;-91
2023/05/18 00:48:22;;;;;;;6.83;2.77;;;;;;;17.22;74.14;98391.06;5039859;28;20215;-91
2023/05/18 00:51:27;;;;;;;;;;;;;;;;;;;;;
2023/05/18 00:54:33;;;;;;;5.27;2.70;;;;;;;17.38;71.99;98383.38;5035260;28;20177;-92
2023/05/18 00:57:53;;;;;;;;;;;;;;;;;;;;;
2023/05/18 01:00:54;;;;;;;;;;;;;;;;;;;;;
2023/05/18 01:03:26;;;;;;;6.80;3.50;;;;;;;17.01;74.00;98379.75;5034826;28;20173;-91
2023/05/18 01:06:21;;;;;;;;;;;;;;;;;;;;;
2023/05/18 01:08:57;;;;;;;5.37;2.50;;;;;;;16.97;74.23;98388.97;5045945;28;20192;-92
2023/05/18 01:12:10;;;;;;;4.73;2.70;;;;;;;16.99;74.11;98394.97;5050382;28;20228;-91
2023/05/18 01:15:00;;;;;;;;;;;;;;;;;;;;;
2023/05/18 01:18:09;;;;;;;;;;;;;;;;;;;;;
2023/05/18 01:20:58;;;;;;;9.57;3.37;;;;;;;17.03;74.93;98393.72;5033801;28;20304;-91
2023/05/18 01:23:57;;;;;;;6.50;3.30;;;;;;;17.03;75.63;98394.53;5049542;28;20178;-90
2023/05/18 01:26:28;;;;;;;6.30;3.27;;;;;;;17.03;76.09;98396.38;5033450;28;20225;-91
2023/05/18 01:28:56;;;;;;;6.10;3.20;;;;;;;17.03;76.37;98399.81;5033835;28;20170;-90
2023/05/18 01:31:29;;;;;;;7.83;3.83;;;;;;;17.02;76.47;98398.19;5033028;28;20190;-91
2023/05/18 01:33:55;;;;;;;7.70;3.60;;;;;;;17.00;76.40;98404.59;5033768;28;20590;-90
2023/05/18 01:36:21;;;;;;;7.43;3.53;;;;;;;16.96;76.67;98395.22;5033568;28;20265;-90
2023/05/18 01:38:52;;;;;;;7.47;3.67;;;;;;;16.95;77.04;98410.31;5049352;28;20543;-91
2023/05/18 01:41:36;;;;;;;10.33;4.00;;;;;;;16.87;77.44;98419.91;5044399;28;20623;-92
2023/05/18 01:44:18;;;;;;;8.27;4.03;;;;;;;16.87;77.75;98419.91;5072876;28;20184;-90
2023/05/18 01:47:07;;;;;;;12.60;4.23;;;;;;;16.83;78.31;98427.25;5072597;28;20599;-91
2023/05/18 01:50:02;;;;;;;5.57;3.83;;;;;;;16.76;78.17;98439.38;5072635;28;20562;-91
2023/05/18 01:52:41;;;;;;;7.27;3.20;;;;;;;16.61;77.07;98439.91;5059532;28;20267;-91
2023/05/18 01:55:15;;;;;;;8.33;3.70;;;;;;;16.65;76.90;98449.22;5053953;28;20173;-91
2023/05/18 01:57:45;;;;;;;5.97;3.40;;;;;;;16.67;76.51;98447.28;5053864;28;20190;-91
2023/05/18 02:00:21;;;;;;;15.53;4.40;;;;;;;16.64;76.41;98450.22;5052717;28;20201;-92
2023/05/18 02:02:50;;;;;;;9.47;4.67;;;;;;;16.66;76.59;98453.56;5053652;28;20158;-91
2023/05/18 02:05:15;;;;;;;11.57;4.17;;;;;;;16.67;76.46;98457.84;5052374;28;20566;-91
2023/05/18 02:07:48;;;;;;;7.73;4.17;;;;;;;16.68;76.59;98454.25;5052543;28;20173;-91
2023/05/18 02:10:24;;;;;;;;;;;;;;;;;;;;;
2023/05/18 02:13:01;;;;;;;;;;;;;;;;;;;;;
2023/05/18 02:15:32;;;;;;;9.37;3.57;;;;;;;16.91;76.26;98459.19;5053862;28;20165;-91
2023/05/18 02:17:58;;;;;;;8.60;3.83;;;;;;;16.96;76.96;98464.91;5069086;28;20170;-90
2023/05/18 02:20:31;;;;;;;6.53;3.23;;;;;;;16.94;77.64;98458.06;5035792;28;20256;-90
2023/05/18 02:22:56;;;;;;;8.13;4.03;;;;;;;16.89;78.73;98465.59;5032737;28;20206;-90
2023/05/18 02:25:26;;;;;;;8.77;5.07;;;;;;;16.83;79.83;98464.31;5061035;28;20216;-91
2023/05/18 02:27:53;;;;;;;11.07;4.90;;;;;;;16.84;80.28;98466.00;5052149;28;20177;-90
2023/05/18 02:30:19;;;;;;;7.77;4.97;;;;;;;16.76;81.18;98462.34;5069148;28;20189;-90
2023/05/18 02:32:55;;;;;;;10.97;5.23;;;;;;;16.79;81.35;98459.44;5052223;28;20212;-91
2023/05/18 02:35:22;;;;;;;8.00;4.77;;;;;;;16.86;81.79;98460.56;5053297;28;20591;-91
2023/05/18 02:38:25;;;;;;;8.70;4.20;;;;;;;16.88;81.69;98459.44;5052135;28;20216;-91
2023/05/18 02:40:51;;;;;;;9.60;4.83;;;;;;;16.88;81.96;98471.84;5053427;28;20209;-92
2023/05/18 02:43:18;;;;;;;7.77;4.70;;;;;;;16.96;81.61;98477.31;5052033;28;20181;-90
2023/05/18 02:45:47;;;;;;;15.50;5.40;;;;;;;16.96;81.95;98478.13;5052746;28;20197;-91
2023/05/18 02:48:14;;;;;;;9.93;4.87;;;;;;;17.00;82.04;98484.00;5069851;28;20177;-90
2023/05/18 02:50:42;;;;;;;9.13;4.80;;;;;;;17.10;81.65;98487.50;5052252;28;20535;-90
2023/05/18 02:53:15;;;;;;;12.00;5.43;;;;;;;17.04;82.07;98485.41;5053689;28;20245;-91
2023/05/18 02:55:42;;;;;;;10.70;4.60;;;;;;;17.01;82.19;98497.09;5067477;28;20238;-91
2023/05/18 02:58:12;;;;;;;8.97;4.70;;;;;;;17.03;82.75;98499.63;5075867;28;20242;-90
2023/05/18 03:00:45;;;;;;;9.87;4.97;;;;;;;16.98;83.18;98502.66;5076344;28;20661;-90
2023/05/18 03:03:22;;;;;;;18.63;5.00;;;;;;;17.01;82.55;98505.03;5073990;28;20181;-90
2023/05/18 03:05:51;;;;;;;9.37;4.77;;;;;;;17.04;81.95;98501.28;5055406;28;20197;-92
2023/05/18 03:08:22;;;;;;;6.90;4.07;;;;;;;17.13;81.80;98489.88;5055452;28;20193;-90
2023/05/18 03:10:51;;;;;;;7.00;4.17;;;;;;;17.28;80.57;98498.25;5073287;28;20518;-91
2023/05/18 03:13:16;;;;;;;8.97;4.53;;;;;;;17.32;80.21;98499.69;5055470;28;20174;-91
2023/05/18 03:15:44;;;;;;;7.03;4.17;;;;;;;17.17;81.08;98499.22;5056343;28;20649;-91
2023/05/18 03:18:15;;;;;;;12.63;4.40;;;;;;;17.15;81.31;98503.81;5055313;28;20678;-90
2023/05/18 03:20:42;;;;;;;9.57;4.37;;;;;;;17.16;81.27;98513.44;5055959;28;20576;-91
2023/05/18 03:23:08;;;;;;;10.30;4.80;;;;;;;17.21;81.40;98519.19;5072426;28;20185;-90
2023/05/18 03:25:36;;;;;;;7.80;4.80;;;;;;;17.18;81.25;98511.50;5056313;28;20272;-91
2023/05/18 03:28:04;;;;;;;10.67;5.33;;;;;;;17.15;80.96;98514.41;5055323;28;20200;-92
2023/05/18 03:30:39;;;;;;;8.97;4.73;;;;;;;17.16;81.42;98510.81;5056013;28;20193;-90
2023/05/18 03:33:06;;;;;;;6.43;3.93;;;;;;;17.16;81.31;98511.63;5056569;28;20173;-91
2023/05/18 03:35:32;;;;;;;10.70;5.37;;;;;;;17.06;81.05;98509.91;5054916;28;20189;-91
2023/05/18 03:38:02;;;;;;;9.33;5.00;;;;;;;16.98;81.78;98520.38;5071458;28;20174;-91
2023/05/18 03:40:28;;;;;;;7.67;4.47;;;;;;;17.04;81.26;98522.47;5055973;28;20197;-91
2023/05/18 03:42:55;;;;;;;8.87;5.33;;;;;;;17.14;80.91;98515.38;5054910;28;20189;-92
2023/05/18 03:45:22;;;;;;;12.50;4.73;;;;;;;17.16;81.13;98522.22;5056090;28;20170;-91
2023/05/18 03:47:52;;;;;;;8.83;4.77;;;;;;;17.20;80.47;98522.78;5062807;28;20550;-91
2023/05/18 03:50:29;;;;;;;7.97;4.70;;;;;;;17.22;80.32;98526.13;5076004;28;20157;-90
2023/05/18 03:52:54;;;;;;;9.40;4.30;;;;;;;17.17;80.65;98523.06;5074904;28;20176;-91
2023/05/18 03:55:20;;;;;;;8.23;4.80;;;;;;;17.25;80.14;98519.72;5074641;28;20181;-91
2023/05/18 03:57:57;;;;;;;10.43;4.67;;;;;;;17.22;80.05;98520.00;5076016;28;20173;-92
2023/05/18 04:00:23;;;;;;;10.43;4.60;;;;;;;17.06;80.75;98524.00;5074734;28;20201;-90
2023/05/18 04:02:50;;;;;;;9.60;5.23;;;;;;;17.05;80.92;98521.50;5054555;28;20623;-90
2023/05/18 04:05:22;;;;;;;12.50;6.00;;;;;;;17.10;81.14;98527.22;5054369;28;20212;-91
2023/05/18 04:08:00;;;;;;;;;;;;;;;;;;;;;
2023/05/18 04:10:27;;;;;;;6.27;3.83;;;;;;;17.25;81.07;98525.84;5056182;28;20162;-92
2023/05/18 04:13:00;;;;;;;8.37;5.00;;;;;;;17.33;80.89;98531.31;5053937;28;20182;-93
2023/05/18 04:15:28;;;;;;;10.83;4.40;;;;;;;17.31;81.06;98541.22;5055290;28;20162;-92
2023/05/18 04:17:57;;;;;;;7.10;4.30;;;;;;;17.32;81.69;98536.75;5055341;28;20182;-91
2023/05/18 04:20:27;;;;;;;5.57;2.93;;;;;;;17.42;81.59;98538.44;5054376;28;20564;-93
2023/05/18 04:23:04;;;;;;;5.73;3.50;;;;;;;17.45;81.71;98542.63;5070826;28;20263;-92
2023/05/18 04:25:33;;;;;;;8.20;3.70;;;;;;;17.45;81.13;98553.22;5055237;28;20185;-91
2023/05/18 04:28:07;;;;;;;7.30;3.67;;;;;;;17.55;80.97;98548.81;5071169;28;20533;-92
2023/05/18 04:30:40;;;;;;;7.57;3.30;;;;;;;17.71;80.38;98549.09;5055240;28;20162;-91
2023/05/18 04:33:09;;;;;;;5.50;3.07;;;;;;;17.70;79.61;98556.19;5070546;28;20611;-91
2023/05/18 04:35:35;;;;;;;7.00;3.53;;;;;;;17.67;80.38;98553.81;5054583;28;20189;-90
2023/05/18 04:38:01;;;;;;;8.30;3.50;;;;;;;17.84;80.38;98548.81;5054676;28;20173;-93
2023/05/18 04:40:32;;;;;;;7.17;3.43;;;;;;;17.92;80.39;98562.19;5053415;28;20208;-90
2023/05/18 04:43:07;;;;;;;9.87;3.87;;;;;;;17.99;80.00;98558.00;5055209;28;20153;-91
2023/05/18 04:45:45;;;;;;;;;;;;;;;;;;;;;
2023/05/18 04:48:13;;;;;;;5.53;3.10;;;;;;;17.75;79.40;98564.56;5055197;28;20189;-91
2023/05/18 04:50:44;;;;;;;7.07;3.80;;;;;;;17.78;79.19;98561.66;5053859;28;20181;-92
2023/05/18 04:53:11;;;;;;;5.43;2.93;;;;;;;17.71;79.08;98573.75;5053834;28;20239;-90
2023/05/18 04:55:37;;;;;;;8.67;3.60;;;;;;;17.78;78.89;98574.06;5054435;28;20220;-91
2023/05/18 04:58:03;;;;;;;10.03;3.57;;;;;;;17.82;79.38;98571.97;5053457;28;20213;-92
2023/05/18 05:00:30;;;;;;;9.50;3.50;;;;;;;17.82;79.71;98577.28;5069986;28;20201;-91
2023/05/18 05:02:58;;;;;;;6.23;3.50;;;;;;;17.92;78.95;98573.66;5053325;28;20206;-92
2023/05/18 05:05:28;;;;;;;10.30;3.40;;;;;;;17.98;78.95;98577.53;5053904;28;20204;-92
2023/05/18 05:08:05;;;;;;;7.00;4.03;;;;;;;18.05;78.17;98570.72;5054215;28;20224;-92
2023/05/18 05:10:32;;;;;;;8.10;2.77;;;;;;;17.99;78.03;98580.06;5053337;28;20188;-92
2023/05/18 05:12:58;;;;;;;5.83;3.37;;;;;;;18.05;77.83;98579.50;5053305;28;20181;-92
2023/05/18 05:15:26;;;;;;;8.50;3.40;;;;;;;18.06;77.72;98577.66;5053671;28;20238;-91
2023/05/18 05:17:51;;;;;;;8.20;3.47;;;;;;;18.09;77.49;98582.69;5053708;28;20178;-90
2023/05/18 05:20:27;;;;;;;7.67;3.50;;;;;;;18.19;77.03;98587.00;5053916;28;20285;-92
2023/05/18 05:22:54;;;;;;;6.33;3.57;;;;;;;18.17;77.70;98590.78;5052949;28;20646;-91
2023/05/18 05:25:21;;;;;;;9.03;4.13;;;;;;;18.09;77.64;98595.94;5054161;28;20186;-91
2023/05/18 05:27:48;;;;;;;4.97;2.87;;;;;;;18.13;78.04;98592.06;5052854;28;20208;-92
2023/05/18 05:30:14;;;;;;;6.20;3.80;;;;;;;18.20;77.20;98614.38;5053093;28;20193;-92
2023/05/18 05:32:41;;;;;;;9.10;3.87;;;;;;;18.15;77.12;98609.50;5052862;28;20216;-92
2023/05/18 05:35:08;;;;;;;8.60;4.13;;;;;;;18.16;77.50;98613.00;5054338;28;20607;-92
2023/05/18 05:37:41;;;;;;;6.80;3.50;;;;;;;18.14;77.93;98620.25;5053761;28;20273;-93
2023/05/18 05:40:08;;;;;;;9.40;3.70;;;;;;;18.26;77.63;98619.13;5053045;28;20211;-92
2023/05/18 05:42:35;;;;;;;7.83;3.93;;;;;;;18.29;77.19;98619.66;5053066;28;20178;-92
2023/05/18 05:45:19;;;;;;;5.70;3.20;;;;;;;18.27;75.76;98613.66;5054716;28;20181;-94
2023/05/18 05:48:09;;;;;;;9.30;4.27;;;;;;;18.19;76.25;98621.50;5053410;28;20182;-94
2023/05/18 05:51:08;;;;;;;7.87;3.90;;;;;;;18.25;76.88;98622.75;5063403;28;20539;-95
2023/05/18 05:53:35;;;;;;;8.47;3.50;;;;;;;18.27;76.82;98618.13;5065102;28;20205;-93
2023/05/18 05:56:47;;;;;;;5.90;3.30;;;;;;;18.35;75.84;98618.28;5053435;28;20215;-94
2023/05/18 05:59:22;;;;;;;7.63;3.80;;;;;;;18.29;76.09;98626.81;5043410;28;20264;-93
2023/05/18 06:02:04;;;;;;;;;;;;;;;;;;;;;
2023/05/18 06:04:37;;;;;;;8.43;4.23;;;;;;;18.42;75.36;98632.66;5053547;28;20602;-92
2023/05/18 06:07:34;;;;;;;6.77;3.57;;;;;;;18.45;74.68;98635.00;5053143;28;20263;-95
2023/05/18 06:17:58;;;;;;;9.47;3.23;;;;;;;18.48;76.19;98642.72;5010761;28;20207;-95
2023/05/18 06:24:00;;;;;;;7.13;3.03;;;;;;;18.81;77.37;98642.25;4973160;28;20199;-94
2023/05/18 06:26:59;;;;;;;;;;;;;;;;;;;;;
2023/05/18 06:30:25;;;;;;;;;;;;;;;;;;;;;
2023/05/18 06:33:25;;;;;;;;;;;;;;;;;;;;;
2023/05/18 06:36:27;;;;;;;7.03;2.80;;;;;;;19.16;73.01;98652.19;4977364;28;20304;-94
2023/05/18 06:42:05;;;;;;;4.63;2.27;;;;;;;19.07;70.52;98653.06;4967178;28;20549;-93
2023/05/18 06:45:25;;;;;;;;;;;;;;;;;;;;;
2023/05/18 06:51:15;;;;;;;3.70;1.40;;;;;;;19.59;69.57;98652.44;4926045;29;20182;-95
2023/05/18 06:54:22;;;;;;;;;;;;;;;;;;;;;
2023/05/18 06:57:20;;;;;;;;;;;;;;;;;;;;;
2023/05/18 07:00:48;;;;;;;;;;;;;;;;;;;;;
2023/05/18 07:10:40;;;;;;;;;;;;;;;;;;;;;
2023/05/18 07:13:09;;;;;;;6.57;1.93;;;;;;;19.93;64.85;98681.03;5015811;28;20178;-92
2023/05/18 07:29:11;;;;;;;4.17;1.40;;;;;;;20.07;61.44;98692.00;4950955;29;20197;-93
2023/05/18 07:39:28;;;;;;;;;;;;;;;;;;;;;
2023/05/18 18:27:18;;;;;;;12.90;3.03;;;;;;;17.93;74.97;98932.44;4938680;28;20233;-90
2023/05/18 18:33:18;;;;;;;5.20;2.63;;;;;;;17.97;76.74;98928.56;4891183;29;20318;-91
2023/05/18 18:36:34;;;;;;;6.77;2.50;;;;;;;17.84;77.75;98935.91;4875184;29;20662;-93
2023/05/18 18:43:04;;;;;;;;;;;;;;;;;;;;;
2023/05/18 18:45:32;;;;;;;5.33;3.03;;;;;;;17.88;78.56;98937.31;4782227;29;20536;-93
2023/05/18 18:51:50;;;;;;;4.07;2.33;;;;;;;17.49;79.18;98937.03;4795479;29;20280;-91
2023/05/18 18:55:05;;;;;;;5.87;2.30;;;;;;;17.59;79.37;98945.94;4735722;30;20216;-91
2023/05/18 19:05:07;;;;;;;;;;;;;;;;;;;;;
2023/05/18 19:11:37;;;;;;;;;;;;;;;;;;;;;
2023/05/18 19:14:36;;;;;;;5.93;2.50;;;;;;;17.69;78.05;98965.38;4843475;29;20196;-91
2023/05/18 19:17:25;;;;;;;4.47;2.27;;;;;;;17.68;78.20;98963.72;4911253;29;20243;-91
2023/05/18 19:20:13;;;;;;;5.97;2.00;;;;;;;17.62;77.57;98969.53;4899305;29;20230;-90
2023/05/18 19:23:21;;;;;;;5.60;2.40;;;;;;;17.52;78.82;98960.63;4921993;29;20191;-92
2023/05/18 19:26:39;;;;;;;3.87;1.90;;;;;;;17.35;78.94;98955.06;4916225;29;20613;-91
2023/05/18 19:29:25;;;;;;;6.47;2.40;;;;;;;17.46;78.29;98952.34;4930003;29;20221;-90
2023/05/18 19:32:37;;;;;;;4.93;2.33;;;;;;;17.44;78.43;98949.84;4909628;29;20195;-91
2023/05/18 19:38:39;;;;;;;4.07;1.90;;;;;;;17.35;77.10;98937.34;4876128;29;20221;-89
2023/05/18 19:41:05;;;;;;;3.60;1.90;;;;;;;17.36;76.32;98936.38;4908439;29;20217;-89
2023/05/18 19:43:30;;;;;;;7.07;1.47;;;;;;;17.38;75.35;98939.75;4907681;29;20190;-89
2023/05/18 19:46:14;;;;;;;;;;;;;;;;;;;;;
2023/05/18 19:48:40;;;;;;;5.10;1.90;;;;;;;17.14;75.53;98942.59;4908527;29;20182;-90
2023/05/18 19:51:06;;;;;;;7.33;2.30;;;;;;;17.09;75.32;98943.94;4905547;29;20270;-90
2023/05/18 19:53:33;;;;;;;3.43;1.37;;;;;;;17.16;75.59;98940.66;4910299;29;20217;-90
2023/05/18 19:55:59;;;;;;;3.73;1.67;;;;;;;16.96;75.39;98930.03;4910388;29;20204;-88
2023/05/18 19:58:25;;;;;;;5.87;1.83;;;;;;;16.98;75.40;98931.59;4906695;29;20190;-89
2023/05/18 20:00:51;;;;;;;6.13;1.60;;;;;;;16.97;74.87;98944.97;4906794;29;20691;-89
2023/05/18 20:03:20;;;;;;;6.67;3.17;;;;;;;17.01;74.72;98936.63;4912034;29;20632;-90
2023/05/18 20:05:46;;;;;;;2.77;1.50;;;;;;;16.88;74.88;98930.66;4905149;29;20673;-91
2023/05/18 20:08:15;;;;;;;3.00;1.37;;;;;;;16.72;75.38;98934.69;4913205;29;20187;-89
2023/05/18 20:10:40;;;;;;;4.50;1.40;;;;;;;16.64;74.76;98935.28;4923189;29;20190;-89
2023/05/18 20:13:08;;;;;;;2.57;1.30;;;;;;;16.94;73.53;98939.91;4907597;29;20194;-90
2023/05/18 20:15:36;;;;;;;3.93;1.50;;;;;;;16.86;73.43;98937.91;4918396;29;20221;-88
2023/05/18 20:18:03;;;;;;;3.33;1.50;;;;;;;16.78;73.46;98939.47;4918381;29;20612;-89
2023/05/18 20:20:31;;;;;;;3.17;1.43;;;;;;;16.98;72.91;98942.19;4918403;29;20668;-89
2023/05/18 20:23:01;;;;;;;4.20;1.57;;;;;;;16.74;72.65;98944.19;4918648;29;20266;-89
2023/05/18 20:25:26;;;;;;;2.70;1.10;;;;;;;16.86;72.03;98937.06;4917774;29;20191;-89
2023/05/18 20:27:55;;;;;;;2.37;1.20;;;;;;;16.87;72.22;98941.41;4918551;29;20188;-89
2023/05/18 20:30:21;;;;;;;2.37;1.27;;;;;;;17.09;71.31;98933.34;4919049;29;20584;-89
2023/05/18 20:32:49;;;;;;;2.17;1.33;;;;;;;16.82;71.82;98946.22;4933385;29;20213;-88
2023/05/18 20:35:15;;;;;;;3.23;1.30;;;;;;;16.91;71.34;98938.38;4918406;29;20186;-89
2023/05/18 20:37:43;;;;;;;2.33;1.60;;;;;;;16.68;72.29;98941.19;4918717;29;20274;-90
2023/05/18 20:40:09;;;;;;;3.50;1.40;;;;;;;16.49;73.50;98937.34;4918295;29;20199;-89
2023/05/18 20:42:40;;;;;;;5.17;1.23;;;;;;;16.53;72.98;98940.63;4918181;29;20277;-88
2023/05/18 20:45:06;;;;;;;4.77;1.23;;;;;;;16.64;73.29;98942.41;4912435;29;20289;-89
2023/05/18 20:47:35;;;;;;;5.70;2.27;;;;;;;16.70;72.50;98942.75;4898999;29;20522;-89
2023/05/18 20:50:08;;;;;;;2.30;0.90;;;;;;;16.58;72.58;98946.38;4899288;29;20246;-90
2023/05/18 20:52:34;;;;;;;7.40;1.93;;;;;;;16.58;72.53;98949.88;4899902;29;20163;-90
2023/05/18 20:54:59;;;;;;;4.47;1.60;;;;;;;16.66;71.50;98951.06;4919527;29;20260;-90
2023/05/18 20:57:27;;;;;;;5.53;1.27;;;;;;;16.61;70.87;98942.66;4917014;29;20265;-87
2023/05/18 20:59:53;;;;;;;4.60;1.20;;;;;;;16.65;70.92;98941.44;4917827;29;20326;-89
2023/05/18 21:02:18;;;;;;;3.37;1.27;;;;;;;16.53;71.05;98945.91;4918084;29;20703;-87
2023/05/18 21:04:45;;;;;;;2.93;1.23;;;;;;;16.70;71.25;98947.19;4917717;29;20202;-87
2023/05/18 21:07:11;;;;;;;1.93;0.80;;;;;;;16.89;70.26;98950.88;4917811;29;20175;-87
2023/05/18 21:09:37;;;;;;;2.37;1.07;;;;;;;16.86;70.02;98948.50;4917791;29;20222;-89
2023/05/18 21:12:04;;;;;;;3.20;1.23;;;;;;;17.02;69.49;98948.94;4916686;29;20236;-88
2023/05/18 21:14:29;;;;;;;2.70;1.10;;;;;;;17.05;68.69;98953.13;4917636;29;20178;-88
2023/05/18 21:16:55;;;;;;;3.77;1.27;;;;;;;17.16;68.13;98945.16;4917735;29;20273;-88
2023/05/18 21:19:20;;;;;;;3.80;1.17;;;;;;;17.17;68.17;98936.22;4918107;29;20256;-88
2023/05/18 21:21:45;;;;;;;1.17;0.90;;;;;;;17.03;67.87;98936.53;4917293;29;20261;-88
2023/05/18 21:24:11;;;;;;;3.00;1.23;;;;;;;16.99;68.12;98943.88;4917536;29;20175;-88
2023/05/18 21:26:37;;;;;;;4.23;1.30;;;;;;;16.76;68.03;98938.75;4918317;29;20182;-88
2023/05/18 21:29:02;;;;;;;3.13;1.17;;;;;;;16.79;68.54;98942.03;4917427;29;20187;-88
2023/05/18 21:31:28;;;;;;;2.97;1.13;;;;;;;16.61;68.69;98943.50;4916344;29;20640;-88
2023/05/18 21:33:53;;;;;;;2.83;1.20;;;;;;;16.50;68.75;98944.31;4916448;29;20282;-88
2023/05/18 21:36:32;;;;;;;2.30;0.93;;;;;;;16.61;68.73;98926.78;4917315;29;20182;-88
2023/05/18 21:39:01;;;;;;;1.93;0.93;;;;;;;16.70;68.00;98937.44;4932231;29;20265;-88
2023/05/18 21:41:27;;;;;;;2.67;1.27;;;;;;;16.74;67.48;98922.19;4917259;29;20258;-87
2023/05/18 21:43:57;;;;;;;2.53;1.07;;;;;;;16.57;67.03;98920.88;4917797;29;20186;-89
2023/05/18 21:46:23;;;;;;;2.50;0.90;;;;;;;16.51;67.39;98916.88;4916696;29;20193;-88
2023/05/18 21:48:49;;;;;;;1.87;1.00;;;;;;;16.69;66.63;98929.66;4916215;29;20620;-88
2023/05/18 21:51:15;;;;;;;1.90;1.00;;;;;;;16.93;66.56;98922.34;4916338;29;20191;-88
2023/05/18 21:53:40;;;;;;;5.50;0.90;;;;;;;16.67;66.98;98921.81;4917451;29;20179;-88
2023/05/18 21:56:06;;;;;;;4.27;1.00;;;;;;;16.66;67.10;98935.19;4917243;29;20190;-89
2023/05/18 21:58:31;;;;;;;2.20;1.07;;;;;;;16.61;67.03;98926.78;4916791;29;20178;-89
2023/05/18 22:00:59;;;;;;;1.90;1.00;;;;;;;16.54;66.94;98921.97;4917204;29;20272;-89
2023/05/18 22:03:24;;;;;;;4.33;0.90;;;;;;;16.67;66.77;98926.25;4916914;29;20542;-89
2023/05/18 22:05:52;;;;;;;3.80;0.97;;;;;;;16.59;66.41;98927.72;4917036;29;20174;-89
2023/05/18 22:08:18;;;;;;;2.37;0.90;;;;;;;16.71;66.25;98922.41;4915642;29;20230;-87
2023/05/18 22:10:45;;;;;;;2.50;1.10;;;;;;;16.87;65.93;98912.28;4898083;29;20187;-88
2023/05/18 22:13:11;;;;;;;1.90;0.70;;;;;;;16.87;65.82;98910.47;4904110;29;20182;-88
2023/05/18 22:15:38;;;;;;;3.67;1.67;;;;;;;16.89;65.81;98918.28;4917069;29;20189;-89
2023/05/18 22:18:05;;;;;;;2.23;1.00;;;;;;;16.71;66.12;98912.69;4916020;29;20237;-88
2023/05/18 22:20:31;;;;;;;2.50;1.00;;;;;;;16.96;65.34;98915.00;4916803;29;20209;-89
2023/05/18 22:22:57;;;;;;;3.67;0.90;;;;;;;17.03;65.27;98915.34;4916696;29;20174;-88
2023/05/18 22:25:23;;;;;;;1.80;0.80;;;;;;;16.89;65.11;98907.69;4916856;29;20182;-88
2023/05/18 22:27:52;;;;;;;4.87;1.03;;;;;;;16.74;65.66;98908.94;4917388;29;20541;-89
2023/05/18 22:30:22;;;;;;;2.03;0.83;;;;;;;16.73;65.79;98909.91;4917083;29;20613;-91
2023/05/18 22:32:49;;;;;;;1.73;0.70;;;;;;;16.64;65.63;98910.66;4916910;29;20162;-89
2023/05/18 22:35:14;;;;;;;2.30;0.87;;;;;;;16.79;64.56;98901.47;4916770;29;20259;-89
2023/05/18 22:37:40;;;;;;;2.90;1.10;;;;;;;16.73;63.98;98904.59;4916782;29;20271;-88
2023/05/18 22:40:06;;;;;;;1.37;0.70;;;;;;;16.79;63.90;98893.53;4916671;29;20210;-87
2023/05/18 22:42:32;;;;;;;2.87;0.87;;;;;;;16.79;63.63;98894.38;4916539;29;20179;-89
2023/05/18 22:44:58;;;;;;;1.57;0.60;;;;;;;16.77;63.79;98900.75;4915780;29;20249;-89
2023/05/18 22:47:23;;;;;;;1.97;0.80;;;;;;;16.78;63.53;98891.84;4916660;29;20276;-88
2023/05/18 22:49:50;;;;;;;2.10;0.87;;;;;;;16.83;63.26;98905.53;4915728;29;20214;-88
2023/05/18 22:52:19;;;;;;;1.53;0.80;;;;;;;16.82;63.70;98903.88;4915711;29;20185;-89
2023/05/18 22:54:45;;;;;;;1.40;0.80;;;;;;;16.79;63.88;98904.13;4915539;29;20657;-87
2023/05/18 22:57:11;;;;;;;3.43;1.10;;;;;;;16.83;63.86;98902.88;4916460;29;20225;-88
2023/05/18 22:59:36;;;;;;;1.93;0.63;;;;;;;16.70;63.60;98894.25;4916799;29;20187;-88
2023/05/18 23:02:03;;;;;;;7.50;1.07;;;;;;;16.81;63.49;98902.19;4916573;29;20541;-87
2023/05/18 23:04:28;;;;;;;1.50;0.70;;;;;;;16.77;63.47;98900.75;4915553;29;20640;-88
2023/05/18 23:06:55;;;;;;;2.97;1.00;;;;;;;16.85;63.95;98893.84;4916475;29;20182;-87
2023/05/18 23:09:27;;;;;;;2.20;0.87;;;;;;;16.90;63.44;98891.66;4916804;29;20181;-88
2023/05/18 23:11:54;;;;;;;2.40;1.03;;;;;;;16.97;62.65;98890.22;4919908;29;20166;-87
2023/05/18 23:14:20;;;;;;;2.27;0.80;;;;;;;17.08;62.48;98895.47;4919864;29;20178;-88
2023/05/18 23:16:48;;;;;;;1.90;1.00;;;;;;;16.97;62.45;98886.72;4919698;29;20217;-88
2023/05/18 23:19:17;;;;;;;2.03;0.83;;;;;;;16.96;61.75;98890.31;4919772;29;20214;-87
2023/05/18 23:21:43;;;;;;;3.07;0.83;;;;;;;16.99;62.29;98887.44;4919707;29;20195;-87
2023/05/18 23:24:11;;;;;;;1.30;0.57;;;;;;;17.04;61.97;98891.38;4919665;29;20196;-88
2023/05/18 23:26:40;;;;;;;1.93;0.90;;;;;;;17.05;61.70;98885.13;4919623;29;20187;-88
2023/05/18 23:29:05;;;;;;;3.43;0.93;;;;;;;17.03;61.63;98896.81;4918634;29;20666;-88
2023/05/18 23:31:31;;;;;;;1.87;0.80;;;;;;;17.25;60.87;98893.19;4919544;29;20170;-88
2023/05/18 23:33:56;;;;;;;2.37;1.00;;;;;;;17.02;61.45;98884.53;4919548;29;20265;-87
2023/05/18 23:36:26;;;;;;;2.17;0.80;;;;;;;16.88;61.50;98887.47;4919760;29;20347;-88
2023/05/18 23:38:59;;;;;;;1.30;0.63;;;;;;;17.01;61.12;98882.84;4919205;29;20225;-88
2023/05/18 23:41:26;;;;;;;4.93;0.70;;;;;;;17.24;60.59;98887.09;4919388;29;20210;-88
2023/05/18 23:43:53;;;;;;;2.03;0.80;;;;;;;17.05;61.42;98884.28;4934152;29;20326;-88
2023/05/18 23:46:19;;;;;;;1.97;0.90;;;;;;;17.23;60.31;98880.09;4918320;29;20190;-87
2023/05/18 23:48:45;;;;;;;1.70;0.70;;;;;;;17.12;60.34;98877.50;4919270;29;20205;-88
2023/05/18 23:51:17;;;;;;;1.67;0.90;;;;;;;17.11;60.83;98873.19;4918316;29;20273;-89
2023/05/18 23:53:44;;;;;;;2.33;0.70;;;;;;;17.12;61.06;98869.53;4918254;29;20175;-87
2023/05/18 23:56:11;;;;;;;2.03;0.83;;;;;;;17.20;60.71;98867.09;4919297;29;20625;-88
2023/05/18 23:58:40;;;;;;;2.57;0.80;;;;;;;17.19;60.81;98876.00;4919215;29;20190;-88
